sensor_id;sensor_type;location;lat;lon;timestamp;P1;durP1;ratioP1;P2;durP2;ratioP2
14474;SDS011;7323;50.848;4.334;2022-11-27T00:01:24;14.87;;;5.77;;
14474;SDS011;7323;50.848;4.334;2022-11-27T00:03:51;12.17;;;5.67;;
14474;SDS011;7323;50.848;4.334;2022-11-27T00:06:20;9.10;;;5.23;;
14474;SDS011;7323;50.848;4.334;2022-11-27T00:08:48;11.47;;;5.57;;
14474;SDS011;7323;50.848;4.334;2022-11-27T00:11:15;16.33;;;5.67;;
14474;SDS011;7323;50.848;4.334;2022-11-27T00:13:45;14.20;;;6.00;;
14474;SDS011;7323;50.848;4.334;2022-11-27T00:16:14;14.97;;;5.17;;
14474;SDS011;7323;50.848;4.334;2022-11-27T00:18:40;14.83;;;5.87;;
14474;SDS011;7323;50.848;4.334;2022-11-27T00:21:07;11.70;;;5.23;;
14474;SDS011;7323;50.848;4.334;2022-11-27T00:23:47;12.10;;;4.77;;
14474;SDS011;7323;50.848;4.334;2022-11-27T00:26:19;13.13;;;5.43;;
14474;SDS011;7323;50.848;4.334;2022-11-27T00:28:47;14.40;;;4.87;;
14474;SDS011;7323;50.848;4.334;2022-11-27T00:31:20;11.87;;;4.93;;
14474;SDS011;7323;50.848;4.334;2022-11-27T00:33:47;10.73;;;4.97;;
14474;SDS011;7323;50.848;4.334;2022-11-27T00:36:14;15.57;;;5.27;;
14474;SDS011;7323;50.848;4.334;2022-11-27T00:38:40;16.47;;;7.33;;
14474;SDS011;7323;50.848;4.334;2022-11-27T00:41:10;15.03;;;5.57;;
14474;SDS011;7323;50.848;4.334;2022-11-27T00:43:39;14.63;;;5.67;;
14474;SDS011;7323;50.848;4.334;2022-11-27T00:46:04;13.03;;;5.07;;
14474;SDS011;7323;50.848;4.334;2022-11-27T00:48:30;17.37;;;5.47;;
14474;SDS011;7323;50.848;4.334;2022-11-27T00:51:02;10.27;;;5.07;;
14474;SDS011;7323;50.848;4.334;2022-11-27T00:53:31;15.00;;;5.43;;
14474;SDS011;7323;50.848;4.334;2022-11-27T00:56:15;15.53;;;5.53;;
14474;SDS011;7323;50.848;4.334;2022-11-27T00:58:49;15.37;;;5.53;;
14474;SDS011;7323;50.848;4.334;2022-11-27T01:04:18;15.67;;;5.40;;
14474;SDS011;7323;50.848;4.334;2022-11-27T01:06:43;15.00;;;5.80;;
14474;SDS011;7323;50.848;4.334;2022-11-27T01:09:10;15.97;;;6.30;;
14474;SDS011;7323;50.848;4.334;2022-11-27T01:11:38;12.73;;;5.33;;
14474;SDS011;7323;50.848;4.334;2022-11-27T01:14:16;15.63;;;6.10;;
14474;SDS011;7323;50.848;4.334;2022-11-27T01:16:44;11.33;;;5.00;;
14474;SDS011;7323;50.848;4.334;2022-11-27T01:19:11;13.93;;;4.30;;
14474;SDS011;7323;50.848;4.334;2022-11-27T01:21:37;14.27;;;5.17;;
14474;SDS011;7323;50.848;4.334;2022-11-27T01:24:05;11.67;;;4.47;;
14474;SDS011;7323;50.848;4.334;2022-11-27T01:26:35;11.83;;;5.23;;
14474;SDS011;7323;50.848;4.334;2022-11-27T01:29:03;12.20;;;4.87;;
14474;SDS011;7323;50.848;4.334;2022-11-27T01:31:30;13.27;;;5.67;;
14474;SDS011;7323;50.848;4.334;2022-11-27T01:34:04;12.57;;;5.00;;
14474;SDS011;7323;50.848;4.334;2022-11-27T01:36:33;12.43;;;4.37;;
14474;SDS011;7323;50.848;4.334;2022-11-27T01:39:00;10.83;;;4.33;;
14474;SDS011;7323;50.848;4.334;2022-11-27T01:41:28;9.73;;;4.10;;
14474;SDS011;7323;50.848;4.334;2022-11-27T01:44:00;10.53;;;4.00;;
14474;SDS011;7323;50.848;4.334;2022-11-27T01:46:46;10.63;;;4.10;;
14474;SDS011;7323;50.848;4.334;2022-11-27T01:49:30;10.57;;;4.17;;
14474;SDS011;7323;50.848;4.334;2022-11-27T01:54:32;8.33;;;3.80;;
14474;SDS011;7323;50.848;4.334;2022-11-27T01:57:10;10.03;;;3.70;;
14474;SDS011;7323;50.848;4.334;2022-11-27T01:59:40;8.60;;;3.37;;
14474;SDS011;7323;50.848;4.334;2022-11-27T02:02:06;8.27;;;3.70;;
14474;SDS011;7323;50.848;4.334;2022-11-27T02:04:32;9.67;;;4.10;;
14474;SDS011;7323;50.848;4.334;2022-11-27T02:06:59;10.47;;;3.63;;
14474;SDS011;7323;50.848;4.334;2022-11-27T02:09:28;11.20;;;4.00;;
14474;SDS011;7323;50.848;4.334;2022-11-27T02:12:09;8.23;;;3.93;;
14474;SDS011;7323;50.848;4.334;2022-11-27T02:14:53;11.53;;;3.97;;
14474;SDS011;7323;50.848;4.334;2022-11-27T02:25:12;7.80;;;4.00;;
14474;SDS011;7323;50.848;4.334;2022-11-27T02:30:18;7.30;;;3.77;;
14474;SDS011;7323;50.848;4.334;2022-11-27T02:32:53;6.37;;;3.33;;
14474;SDS011;7323;50.848;4.334;2022-11-27T02:35:27;9.13;;;3.83;;
14474;SDS011;7323;50.848;4.334;2022-11-27T02:38:07;8.43;;;3.63;;
14474;SDS011;7323;50.848;4.334;2022-11-27T02:40:52;9.67;;;3.40;;
14474;SDS011;7323;50.848;4.334;2022-11-27T02:43:22;9.57;;;3.97;;
14474;SDS011;7323;50.848;4.334;2022-11-27T02:45:53;9.73;;;3.77;;
14474;SDS011;7323;50.848;4.334;2022-11-27T02:48:22;6.47;;;3.30;;
14474;SDS011;7323;50.848;4.334;2022-11-27T02:50:51;6.17;;;2.87;;
14474;SDS011;7323;50.848;4.334;2022-11-27T02:53:19;10.27;;;4.13;;
14474;SDS011;7323;50.848;4.334;2022-11-27T02:55:49;9.50;;;3.40;;
14474;SDS011;7323;50.848;4.334;2022-11-27T02:58:19;6.97;;;3.17;;
14474;SDS011;7323;50.848;4.334;2022-11-27T03:00:48;6.93;;;2.87;;
14474;SDS011;7323;50.848;4.334;2022-11-27T03:03:16;5.77;;;2.47;;
14474;SDS011;7323;50.848;4.334;2022-11-27T03:05:45;5.47;;;2.80;;
14474;SDS011;7323;50.848;4.334;2022-11-27T03:08:22;7.83;;;2.97;;
14474;SDS011;7323;50.848;4.334;2022-11-27T03:13:29;6.77;;;2.67;;
14474;SDS011;7323;50.848;4.334;2022-11-27T03:18:43;7.80;;;2.50;;
14474;SDS011;7323;50.848;4.334;2022-11-27T03:24:03;7.70;;;2.80;;
14474;SDS011;7323;50.848;4.334;2022-11-27T03:26:30;5.90;;;2.60;;
14474;SDS011;7323;50.848;4.334;2022-11-27T03:28:57;4.87;;;2.37;;
14474;SDS011;7323;50.848;4.334;2022-11-27T03:31:26;9.13;;;2.63;;
14474;SDS011;7323;50.848;4.334;2022-11-27T03:33:53;6.63;;;3.00;;
14474;SDS011;7323;50.848;4.334;2022-11-27T03:36:19;5.60;;;2.77;;
14474;SDS011;7323;50.848;4.334;2022-11-27T03:38:48;5.13;;;2.80;;
14474;SDS011;7323;50.848;4.334;2022-11-27T03:49:27;5.63;;;2.47;;
14474;SDS011;7323;50.848;4.334;2022-11-27T03:52:00;6.37;;;2.40;;
14474;SDS011;7323;50.848;4.334;2022-11-27T03:54:57;8.30;;;3.20;;
14474;SDS011;7323;50.848;4.334;2022-11-27T04:00:13;5.70;;;2.70;;
14474;SDS011;7323;50.848;4.334;2022-11-27T04:02:48;7.57;;;2.97;;
14474;SDS011;7323;50.848;4.334;2022-11-27T04:05:15;6.67;;;2.80;;
14474;SDS011;7323;50.848;4.334;2022-11-27T04:10:13;6.00;;;2.80;;
14474;SDS011;7323;50.848;4.334;2022-11-27T04:12:39;4.90;;;2.27;;
14474;SDS011;7323;50.848;4.334;2022-11-27T04:15:05;6.53;;;2.50;;
14474;SDS011;7323;50.848;4.334;2022-11-27T04:17:31;6.23;;;2.83;;
14474;SDS011;7323;50.848;4.334;2022-11-27T04:19:57;7.73;;;3.07;;
14474;SDS011;7323;50.848;4.334;2022-11-27T04:22:27;6.53;;;2.97;;
14474;SDS011;7323;50.848;4.334;2022-11-27T04:24:53;10.30;;;3.00;;
14474;SDS011;7323;50.848;4.334;2022-11-27T04:27:19;7.93;;;2.90;;
14474;SDS011;7323;50.848;4.334;2022-11-27T04:29:45;4.70;;;2.63;;
14474;SDS011;7323;50.848;4.334;2022-11-27T04:32:12;6.83;;;3.00;;
14474;SDS011;7323;50.848;4.334;2022-11-27T04:34:38;7.50;;;2.83;;
14474;SDS011;7323;50.848;4.334;2022-11-27T04:37:06;5.20;;;2.63;;
14474;SDS011;7323;50.848;4.334;2022-11-27T04:39:32;6.30;;;2.60;;
14474;SDS011;7323;50.848;4.334;2022-11-27T04:41:58;8.83;;;3.00;;
14474;SDS011;7323;50.848;4.334;2022-11-27T04:44:24;6.20;;;2.87;;
14474;SDS011;7323;50.848;4.334;2022-11-27T04:46:51;9.60;;;2.83;;
14474;SDS011;7323;50.848;4.334;2022-11-27T04:49:18;7.90;;;2.70;;
14474;SDS011;7323;50.848;4.334;2022-11-27T04:51:44;5.40;;;3.00;;
14474;SDS011;7323;50.848;4.334;2022-11-27T04:54:10;8.27;;;2.97;;
14474;SDS011;7323;50.848;4.334;2022-11-27T04:56:38;6.57;;;2.77;;
14474;SDS011;7323;50.848;4.334;2022-11-27T04:59:04;6.80;;;2.73;;
14474;SDS011;7323;50.848;4.334;2022-11-27T05:01:30;5.97;;;2.90;;
14474;SDS011;7323;50.848;4.334;2022-11-27T05:03:57;5.17;;;2.70;;
14474;SDS011;7323;50.848;4.334;2022-11-27T05:06:29;6.13;;;2.60;;
14474;SDS011;7323;50.848;4.334;2022-11-27T05:08:55;6.47;;;3.03;;
14474;SDS011;7323;50.848;4.334;2022-11-27T05:11:26;6.20;;;2.80;;
14474;SDS011;7323;50.848;4.334;2022-11-27T05:13:54;4.63;;;2.90;;
14474;SDS011;7323;50.848;4.334;2022-11-27T05:16:38;6.07;;;2.90;;
14474;SDS011;7323;50.848;4.334;2022-11-27T05:19:26;7.43;;;2.90;;
14474;SDS011;7323;50.848;4.334;2022-11-27T05:21:53;6.77;;;3.40;;
14474;SDS011;7323;50.848;4.334;2022-11-27T05:24:21;8.30;;;3.40;;
14474;SDS011;7323;50.848;4.334;2022-11-27T05:26:51;6.80;;;3.43;;
14474;SDS011;7323;50.848;4.334;2022-11-27T05:29:17;7.10;;;3.37;;
14474;SDS011;7323;50.848;4.334;2022-11-27T05:31:44;9.10;;;3.47;;
14474;SDS011;7323;50.848;4.334;2022-11-27T05:34:11;6.60;;;3.17;;
14474;SDS011;7323;50.848;4.334;2022-11-27T05:36:37;9.70;;;3.53;;
14474;SDS011;7323;50.848;4.334;2022-11-27T05:39:08;6.07;;;3.20;;
14474;SDS011;7323;50.848;4.334;2022-11-27T05:41:44;5.87;;;3.00;;
14474;SDS011;7323;50.848;4.334;2022-11-27T05:44:21;4.90;;;2.90;;
14474;SDS011;7323;50.848;4.334;2022-11-27T05:47:02;6.13;;;2.93;;
14474;SDS011;7323;50.848;4.334;2022-11-27T05:52:51;7.30;;;3.23;;
14474;SDS011;7323;50.848;4.334;2022-11-27T05:55:18;7.43;;;3.90;;
14474;SDS011;7323;50.848;4.334;2022-11-27T05:57:50;7.40;;;3.50;;
14474;SDS011;7323;50.848;4.334;2022-11-27T06:00:17;6.50;;;3.37;;
14474;SDS011;7323;50.848;4.334;2022-11-27T06:02:44;8.03;;;3.33;;
14474;SDS011;7323;50.848;4.334;2022-11-27T06:05:11;6.57;;;3.23;;
14474;SDS011;7323;50.848;4.334;2022-11-27T06:07:36;6.23;;;3.47;;
14474;SDS011;7323;50.848;4.334;2022-11-27T06:10:02;7.97;;;3.70;;
14474;SDS011;7323;50.848;4.334;2022-11-27T06:12:38;6.93;;;3.30;;
14474;SDS011;7323;50.848;4.334;2022-11-27T06:15:10;7.53;;;3.13;;
14474;SDS011;7323;50.848;4.334;2022-11-27T06:17:36;6.97;;;3.30;;
14474;SDS011;7323;50.848;4.334;2022-11-27T06:20:02;7.03;;;3.70;;
14474;SDS011;7323;50.848;4.334;2022-11-27T06:22:29;8.40;;;3.37;;
14474;SDS011;7323;50.848;4.334;2022-11-27T06:24:54;5.80;;;3.77;;
14474;SDS011;7323;50.848;4.334;2022-11-27T06:27:20;6.40;;;3.60;;
14474;SDS011;7323;50.848;4.334;2022-11-27T06:29:46;9.57;;;3.30;;
14474;SDS011;7323;50.848;4.334;2022-11-27T06:32:11;7.93;;;3.80;;
14474;SDS011;7323;50.848;4.334;2022-11-27T06:34:37;8.53;;;3.93;;
14474;SDS011;7323;50.848;4.334;2022-11-27T06:37:03;7.50;;;3.60;;
14474;SDS011;7323;50.848;4.334;2022-11-27T06:39:28;6.63;;;3.60;;
14474;SDS011;7323;50.848;4.334;2022-11-27T06:41:54;7.90;;;3.90;;
14474;SDS011;7323;50.848;4.334;2022-11-27T06:44:20;6.80;;;3.30;;
14474;SDS011;7323;50.848;4.334;2022-11-27T06:46:45;7.87;;;4.27;;
14474;SDS011;7323;50.848;4.334;2022-11-27T06:49:11;5.70;;;3.87;;
14474;SDS011;7323;50.848;4.334;2022-11-27T06:51:37;7.13;;;3.33;;
14474;SDS011;7323;50.848;4.334;2022-11-27T06:54:02;7.40;;;3.93;;
14474;SDS011;7323;50.848;4.334;2022-11-27T06:56:29;5.80;;;3.50;;
14474;SDS011;7323;50.848;4.334;2022-11-27T06:58:59;8.10;;;4.00;;
14474;SDS011;7323;50.848;4.334;2022-11-27T07:01:26;6.97;;;3.87;;
14474;SDS011;7323;50.848;4.334;2022-11-27T07:03:55;5.77;;;3.53;;
14474;SDS011;7323;50.848;4.334;2022-11-27T07:06:22;6.50;;;4.00;;
14474;SDS011;7323;50.848;4.334;2022-11-27T07:08:49;11.67;;;4.13;;
14474;SDS011;7323;50.848;4.334;2022-11-27T07:11:16;6.37;;;3.63;;
14474;SDS011;7323;50.848;4.334;2022-11-27T07:13:44;8.47;;;3.53;;
14474;SDS011;7323;50.848;4.334;2022-11-27T07:16:11;8.53;;;3.50;;
14474;SDS011;7323;50.848;4.334;2022-11-27T07:18:48;9.80;;;4.20;;
14474;SDS011;7323;50.848;4.334;2022-11-27T07:21:15;7.77;;;3.80;;
14474;SDS011;7323;50.848;4.334;2022-11-27T07:23:41;7.67;;;3.93;;
14474;SDS011;7323;50.848;4.334;2022-11-27T07:26:07;9.43;;;4.30;;
14474;SDS011;7323;50.848;4.334;2022-11-27T07:28:38;7.70;;;3.73;;
14474;SDS011;7323;50.848;4.334;2022-11-27T07:31:07;6.47;;;3.57;;
14474;SDS011;7323;50.848;4.334;2022-11-27T07:33:35;6.87;;;3.70;;
14474;SDS011;7323;50.848;4.334;2022-11-27T07:36:06;8.33;;;3.70;;
14474;SDS011;7323;50.848;4.334;2022-11-27T07:38:34;7.60;;;3.87;;
14474;SDS011;7323;50.848;4.334;2022-11-27T07:41:01;10.27;;;4.60;;
14474;SDS011;7323;50.848;4.334;2022-11-27T07:43:28;7.07;;;4.27;;
14474;SDS011;7323;50.848;4.334;2022-11-27T07:45:54;7.07;;;3.67;;
14474;SDS011;7323;50.848;4.334;2022-11-27T07:48:20;8.73;;;3.90;;
14474;SDS011;7323;50.848;4.334;2022-11-27T07:50:46;6.47;;;3.83;;
14474;SDS011;7323;50.848;4.334;2022-11-27T07:53:12;8.37;;;4.43;;
14474;SDS011;7323;50.848;4.334;2022-11-27T07:55:38;10.20;;;4.50;;
14474;SDS011;7323;50.848;4.334;2022-11-27T07:58:05;7.27;;;3.60;;
14474;SDS011;7323;50.848;4.334;2022-11-27T08:00:32;7.33;;;4.13;;
14474;SDS011;7323;50.848;4.334;2022-11-27T08:02:59;8.67;;;4.20;;
14474;SDS011;7323;50.848;4.334;2022-11-27T08:05:26;6.00;;;3.87;;
14474;SDS011;7323;50.848;4.334;2022-11-27T08:07:51;7.53;;;4.13;;
14474;SDS011;7323;50.848;4.334;2022-11-27T08:10:17;9.37;;;4.73;;
14474;SDS011;7323;50.848;4.334;2022-11-27T08:12:43;8.20;;;3.90;;
14474;SDS011;7323;50.848;4.334;2022-11-27T08:15:09;9.13;;;4.37;;
14474;SDS011;7323;50.848;4.334;2022-11-27T08:17:35;7.90;;;4.00;;
14474;SDS011;7323;50.848;4.334;2022-11-27T08:20:02;7.17;;;3.97;;
14474;SDS011;7323;50.848;4.334;2022-11-27T08:22:28;7.43;;;4.00;;
14474;SDS011;7323;50.848;4.334;2022-11-27T08:27:24;7.90;;;4.23;;
14474;SDS011;7323;50.848;4.334;2022-11-27T08:29:54;6.33;;;4.03;;
14474;SDS011;7323;50.848;4.334;2022-11-27T08:32:20;6.90;;;3.80;;
14474;SDS011;7323;50.848;4.334;2022-11-27T08:34:45;7.67;;;3.90;;
14474;SDS011;7323;50.848;4.334;2022-11-27T08:37:11;8.50;;;4.23;;
14474;SDS011;7323;50.848;4.334;2022-11-27T08:39:37;7.07;;;4.20;;
14474;SDS011;7323;50.848;4.334;2022-11-27T08:42:02;7.10;;;4.33;;
14474;SDS011;7323;50.848;4.334;2022-11-27T08:44:35;7.47;;;4.33;;
14474;SDS011;7323;50.848;4.334;2022-11-27T08:47:01;8.73;;;4.97;;
14474;SDS011;7323;50.848;4.334;2022-11-27T08:49:28;13.10;;;7.50;;
14474;SDS011;7323;50.848;4.334;2022-11-27T08:51:58;8.07;;;4.23;;
14474;SDS011;7323;50.848;4.334;2022-11-27T08:54:39;6.87;;;4.30;;
14474;SDS011;7323;50.848;4.334;2022-11-27T08:57:05;6.47;;;4.00;;
14474;SDS011;7323;50.848;4.334;2022-11-27T08:59:32;8.70;;;4.10;;
14474;SDS011;7323;50.848;4.334;2022-11-27T09:01:58;6.77;;;4.03;;
14474;SDS011;7323;50.848;4.334;2022-11-27T09:04:25;6.53;;;4.33;;
14474;SDS011;7323;50.848;4.334;2022-11-27T09:06:52;8.33;;;5.10;;
14474;SDS011;7323;50.848;4.334;2022-11-27T09:09:18;7.60;;;4.10;;
14474;SDS011;7323;50.848;4.334;2022-11-27T09:11:44;7.87;;;4.03;;
14474;SDS011;7323;50.848;4.334;2022-11-27T09:14:10;8.70;;;4.47;;
14474;SDS011;7323;50.848;4.334;2022-11-27T09:16:48;6.63;;;4.33;;
14474;SDS011;7323;50.848;4.334;2022-11-27T09:19:24;7.77;;;4.43;;
14474;SDS011;7323;50.848;4.334;2022-11-27T09:22:02;8.43;;;4.50;;
14474;SDS011;7323;50.848;4.334;2022-11-27T09:24:31;6.20;;;4.20;;
14474;SDS011;7323;50.848;4.334;2022-11-27T09:29:37;7.47;;;4.23;;
14474;SDS011;7323;50.848;4.334;2022-11-27T09:32:03;8.07;;;4.37;;
14474;SDS011;7323;50.848;4.334;2022-11-27T09:34:29;7.53;;;4.10;;
14474;SDS011;7323;50.848;4.334;2022-11-27T09:37:06;8.13;;;4.20;;
14474;SDS011;7323;50.848;4.334;2022-11-27T09:39:44;10.37;;;4.97;;
14474;SDS011;7323;50.848;4.334;2022-11-27T09:42:20;6.80;;;3.73;;
14474;SDS011;7323;50.848;4.334;2022-11-27T09:45:14;6.67;;;4.00;;
14474;SDS011;7323;50.848;4.334;2022-11-27T09:47:49;7.73;;;4.90;;
14474;SDS011;7323;50.848;4.334;2022-11-27T09:50:42;9.97;;;4.57;;
14474;SDS011;7323;50.848;4.334;2022-11-27T09:53:46;6.63;;;4.30;;
14474;SDS011;7323;50.848;4.334;2022-11-27T09:56:21;7.40;;;4.60;;
14474;SDS011;7323;50.848;4.334;2022-11-27T09:58:57;9.80;;;4.53;;
14474;SDS011;7323;50.848;4.334;2022-11-27T10:01:30;7.00;;;4.10;;
14474;SDS011;7323;50.848;4.334;2022-11-27T10:20:14;11.00;;;5.57;;
14474;SDS011;7323;50.848;4.334;2022-11-27T10:25:53;7.97;;;4.80;;
14474;SDS011;7323;50.848;4.334;2022-11-27T10:29:08;10.30;;;6.20;;
14474;SDS011;7323;50.848;4.334;2022-11-27T10:31:32;10.13;;;5.70;;
14474;SDS011;7323;50.848;4.334;2022-11-27T10:34:18;8.97;;;5.47;;
14474;SDS011;7323;50.848;4.334;2022-11-27T10:39:58;10.70;;;6.67;;
14474;SDS011;7323;50.848;4.334;2022-11-27T10:42:35;7.90;;;5.77;;
14474;SDS011;7323;50.848;4.334;2022-11-27T10:45:49;11.80;;;5.77;;
14474;SDS011;7323;50.848;4.334;2022-11-27T10:48:23;7.80;;;5.57;;
14474;SDS011;7323;50.848;4.334;2022-11-27T10:50:49;10.20;;;6.23;;
14474;SDS011;7323;50.848;4.334;2022-11-27T10:53:22;11.80;;;5.80;;
14474;SDS011;7323;50.848;4.334;2022-11-27T11:01:45;11.47;;;6.97;;
14474;SDS011;7323;50.848;4.334;2022-11-27T11:04:24;9.83;;;6.43;;
14474;SDS011;7323;50.848;4.334;2022-11-27T11:06:52;9.37;;;6.07;;
14474;SDS011;7323;50.848;4.334;2022-11-27T11:09:22;10.83;;;6.53;;
14474;SDS011;7323;50.848;4.334;2022-11-27T11:11:50;9.37;;;6.17;;
14474;SDS011;7323;50.848;4.334;2022-11-27T11:14:39;11.23;;;6.87;;
14474;SDS011;7323;50.848;4.334;2022-11-27T11:17:31;10.93;;;6.53;;
14474;SDS011;7323;50.848;4.334;2022-11-27T11:20:17;12.03;;;6.57;;
14474;SDS011;7323;50.848;4.334;2022-11-27T11:22:45;10.00;;;6.20;;
14474;SDS011;7323;50.848;4.334;2022-11-27T11:25:21;10.67;;;6.07;;
14474;SDS011;7323;50.848;4.334;2022-11-27T11:27:48;10.17;;;6.27;;
14474;SDS011;7323;50.848;4.334;2022-11-27T11:30:28;10.93;;;6.27;;
14474;SDS011;7323;50.848;4.334;2022-11-27T11:33:01;10.43;;;6.27;;
14474;SDS011;7323;50.848;4.334;2022-11-27T11:35:35;10.40;;;7.03;;
14474;SDS011;7323;50.848;4.334;2022-11-27T11:38:02;10.53;;;6.57;;
14474;SDS011;7323;50.848;4.334;2022-11-27T11:40:30;9.10;;;5.90;;
14474;SDS011;7323;50.848;4.334;2022-11-27T11:42:59;9.00;;;6.57;;
14474;SDS011;7323;50.848;4.334;2022-11-27T11:45:51;8.97;;;5.90;;
14474;SDS011;7323;50.848;4.334;2022-11-27T11:48:27;10.67;;;6.30;;
14474;SDS011;7323;50.848;4.334;2022-11-27T11:53:42;12.73;;;6.40;;
14474;SDS011;7323;50.848;4.334;2022-11-27T11:56:21;8.40;;;5.93;;
14474;SDS011;7323;50.848;4.334;2022-11-27T11:59:00;9.77;;;5.30;;
14474;SDS011;7323;50.848;4.334;2022-11-27T12:21:38;7.93;;;4.93;;
14474;SDS011;7323;50.848;4.334;2022-11-27T12:24:25;10.53;;;5.33;;
14474;SDS011;7323;50.848;4.334;2022-11-27T12:44:16;10.87;;;5.47;;
14474;SDS011;7323;50.848;4.334;2022-11-27T12:49:32;8.90;;;5.57;;
14474;SDS011;7323;50.848;4.334;2022-11-27T12:52:33;10.53;;;4.90;;
14474;SDS011;7323;50.848;4.334;2022-11-27T12:55:26;10.47;;;5.77;;
14474;SDS011;7323;50.848;4.334;2022-11-27T12:58:08;12.00;;;6.63;;
14474;SDS011;7323;50.848;4.334;2022-11-27T13:00:51;8.67;;;5.27;;
14474;SDS011;7323;50.848;4.334;2022-11-27T13:03:32;10.53;;;6.73;;
14474;SDS011;7323;50.848;4.334;2022-11-27T13:06:25;9.20;;;5.50;;
14474;SDS011;7323;50.848;4.334;2022-11-27T13:09:04;9.23;;;5.30;;
14474;SDS011;7323;50.848;4.334;2022-11-27T13:11:54;6.63;;;4.93;;
14474;SDS011;7323;50.848;4.334;2022-11-27T13:14:21;6.83;;;5.03;;
14474;SDS011;7323;50.848;4.334;2022-11-27T13:17:00;7.57;;;4.87;;
14474;SDS011;7323;50.848;4.334;2022-11-27T13:19:32;7.20;;;4.47;;
14474;SDS011;7323;50.848;4.334;2022-11-27T13:22:05;7.70;;;4.13;;
14474;SDS011;7323;50.848;4.334;2022-11-27T13:24:37;6.70;;;4.33;;
14474;SDS011;7323;50.848;4.334;2022-11-27T13:27:04;7.57;;;4.60;;
14474;SDS011;7323;50.848;4.334;2022-11-27T13:29:43;7.47;;;4.77;;
14474;SDS011;7323;50.848;4.334;2022-11-27T13:34:49;7.20;;;4.43;;
14474;SDS011;7323;50.848;4.334;2022-11-27T13:37:27;8.07;;;4.60;;
14474;SDS011;7323;50.848;4.334;2022-11-27T13:42:43;7.60;;;5.07;;
14474;SDS011;7323;50.848;4.334;2022-11-27T13:47:45;7.90;;;4.87;;
14474;SDS011;7323;50.848;4.334;2022-11-27T13:55:51;7.13;;;4.73;;
14474;SDS011;7323;50.848;4.334;2022-11-27T13:58:34;8.23;;;5.40;;
14474;SDS011;7323;50.848;4.334;2022-11-27T14:01:18;7.40;;;5.03;;
14474;SDS011;7323;50.848;4.334;2022-11-27T14:03:52;7.93;;;4.97;;
14474;SDS011;7323;50.848;4.334;2022-11-27T14:06:25;7.53;;;4.87;;
14474;SDS011;7323;50.848;4.334;2022-11-27T14:08:54;6.67;;;4.63;;
14474;SDS011;7323;50.848;4.334;2022-11-27T14:11:44;6.00;;;4.50;;
14474;SDS011;7323;50.848;4.334;2022-11-27T14:17:41;6.10;;;3.90;;
14474;SDS011;7323;50.848;4.334;2022-11-27T14:22:57;5.80;;;4.00;;
14474;SDS011;7323;50.848;4.334;2022-11-27T14:25:43;6.63;;;4.10;;
14474;SDS011;7323;50.848;4.334;2022-11-27T14:28:18;5.80;;;3.93;;
14474;SDS011;7323;50.848;4.334;2022-11-27T14:30:55;8.73;;;4.60;;
14474;SDS011;7323;50.848;4.334;2022-11-27T14:36:50;5.77;;;4.23;;
14474;SDS011;7323;50.848;4.334;2022-11-27T14:39:35;10.17;;;4.40;;
14474;SDS011;7323;50.848;4.334;2022-11-27T14:42:38;5.20;;;4.13;;
14474;SDS011;7323;50.848;4.334;2022-11-27T14:45:15;7.70;;;4.23;;
14474;SDS011;7323;50.848;4.334;2022-11-27T14:47:57;7.53;;;4.70;;
14474;SDS011;7323;50.848;4.334;2022-11-27T14:50:23;6.67;;;4.07;;
14474;SDS011;7323;50.848;4.334;2022-11-27T14:52:54;5.83;;;3.73;;
14474;SDS011;7323;50.848;4.334;2022-11-27T14:55:23;9.37;;;6.10;;
14474;SDS011;7323;50.848;4.334;2022-11-27T14:57:58;7.47;;;4.83;;
14474;SDS011;7323;50.848;4.334;2022-11-27T15:00:25;5.33;;;4.00;;
14474;SDS011;7323;50.848;4.334;2022-11-27T15:02:52;6.60;;;4.77;;
14474;SDS011;7323;50.848;4.334;2022-11-27T15:05:26;7.90;;;4.80;;
14474;SDS011;7323;50.848;4.334;2022-11-27T15:07:55;6.30;;;4.43;;
14474;SDS011;7323;50.848;4.334;2022-11-27T15:10:36;6.10;;;4.13;;
14474;SDS011;7323;50.848;4.334;2022-11-27T15:15:42;6.30;;;3.97;;
14474;SDS011;7323;50.848;4.334;2022-11-27T15:18:23;6.20;;;4.60;;
14474;SDS011;7323;50.848;4.334;2022-11-27T15:20:56;7.37;;;4.63;;
14474;SDS011;7323;50.848;4.334;2022-11-27T15:23:27;6.80;;;4.20;;
14474;SDS011;7323;50.848;4.334;2022-11-27T15:30:57;6.43;;;3.67;;
14474;SDS011;7323;50.848;4.334;2022-11-27T15:36:34;5.83;;;4.33;;
14474;SDS011;7323;50.848;4.334;2022-11-27T15:39:58;7.70;;;4.73;;
14474;SDS011;7323;50.848;4.334;2022-11-27T15:42:27;7.03;;;4.90;;
14474;SDS011;7323;50.848;4.334;2022-11-27T15:44:55;9.93;;;7.73;;
14474;SDS011;7323;50.848;4.334;2022-11-27T15:47:35;8.53;;;5.93;;
14474;SDS011;7323;50.848;4.334;2022-11-27T15:50:03;6.90;;;4.77;;
14474;SDS011;7323;50.848;4.334;2022-11-27T15:52:29;6.80;;;4.57;;
14474;SDS011;7323;50.848;4.334;2022-11-27T15:55:02;7.17;;;4.73;;
14474;SDS011;7323;50.848;4.334;2022-11-27T15:57:30;5.90;;;4.10;;
14474;SDS011;7323;50.848;4.334;2022-11-27T16:00:03;5.50;;;4.30;;
14474;SDS011;7323;50.848;4.334;2022-11-27T16:02:50;6.23;;;4.23;;
14474;SDS011;7323;50.848;4.334;2022-11-27T16:07:46;6.37;;;4.50;;
14474;SDS011;7323;50.848;4.334;2022-11-27T16:10:13;6.67;;;4.33;;
14474;SDS011;7323;50.848;4.334;2022-11-27T16:15:23;6.10;;;4.30;;
14474;SDS011;7323;50.848;4.334;2022-11-27T16:17:49;7.97;;;4.93;;
14474;SDS011;7323;50.848;4.334;2022-11-27T16:20:21;6.77;;;4.07;;
14474;SDS011;7323;50.848;4.334;2022-11-27T16:22:47;5.37;;;4.33;;
14474;SDS011;7323;50.848;4.334;2022-11-27T16:25:13;6.20;;;4.33;;
14474;SDS011;7323;50.848;4.334;2022-11-27T16:27:38;6.80;;;4.30;;
14474;SDS011;7323;50.848;4.334;2022-11-27T16:30:05;6.90;;;4.70;;
14474;SDS011;7323;50.848;4.334;2022-11-27T16:41:51;7.20;;;5.17;;
14474;SDS011;7323;50.848;4.334;2022-11-27T16:44:19;8.77;;;4.83;;
14474;SDS011;7323;50.848;4.334;2022-11-27T16:46:46;6.97;;;4.70;;
14474;SDS011;7323;50.848;4.334;2022-11-27T16:49:11;5.67;;;4.40;;
14474;SDS011;7323;50.848;4.334;2022-11-27T16:51:38;6.57;;;4.60;;
14474;SDS011;7323;50.848;4.334;2022-11-27T16:54:06;6.87;;;4.77;;
14474;SDS011;7323;50.848;4.334;2022-11-27T16:56:36;7.33;;;5.20;;
14474;SDS011;7323;50.848;4.334;2022-11-27T16:59:05;6.17;;;4.20;;
14474;SDS011;7323;50.848;4.334;2022-11-27T17:01:35;7.40;;;4.90;;
14474;SDS011;7323;50.848;4.334;2022-11-27T17:04:02;13.67;;;9.63;;
14474;SDS011;7323;50.848;4.334;2022-11-27T17:06:31;7.13;;;5.63;;
14474;SDS011;7323;50.848;4.334;2022-11-27T17:08:58;7.33;;;5.10;;
14474;SDS011;7323;50.848;4.334;2022-11-27T17:11:29;8.13;;;4.90;;
14474;SDS011;7323;50.848;4.334;2022-11-27T17:13:59;7.33;;;4.70;;
14474;SDS011;7323;50.848;4.334;2022-11-27T17:16:26;8.23;;;4.73;;
14474;SDS011;7323;50.848;4.334;2022-11-27T17:18:53;6.63;;;4.80;;
14474;SDS011;7323;50.848;4.334;2022-11-27T17:21:30;7.17;;;5.27;;
14474;SDS011;7323;50.848;4.334;2022-11-27T17:24:04;6.97;;;5.07;;
14474;SDS011;7323;50.848;4.334;2022-11-27T17:26:32;7.87;;;4.87;;
14474;SDS011;7323;50.848;4.334;2022-11-27T17:28:59;7.43;;;5.13;;
14474;SDS011;7323;50.848;4.334;2022-11-27T17:31:27;8.43;;;5.10;;
14474;SDS011;7323;50.848;4.334;2022-11-27T17:33:59;7.57;;;5.13;;
14474;SDS011;7323;50.848;4.334;2022-11-27T17:36:26;7.10;;;5.30;;
14474;SDS011;7323;50.848;4.334;2022-11-27T17:38:55;5.37;;;4.53;;
14474;SDS011;7323;50.848;4.334;2022-11-27T17:41:20;7.13;;;5.00;;
14474;SDS011;7323;50.848;4.334;2022-11-27T17:43:49;7.37;;;4.90;;
14474;SDS011;7323;50.848;4.334;2022-11-27T17:46:16;9.57;;;4.50;;
14474;SDS011;7323;50.848;4.334;2022-11-27T17:48:44;6.53;;;4.40;;
14474;SDS011;7323;50.848;4.334;2022-11-27T17:51:10;7.20;;;4.90;;
14474;SDS011;7323;50.848;4.334;2022-11-27T17:53:36;9.37;;;4.40;;
14474;SDS011;7323;50.848;4.334;2022-11-27T17:56:06;9.27;;;5.63;;
14474;SDS011;7323;50.848;4.334;2022-11-27T17:58:43;8.63;;;5.07;;
14474;SDS011;7323;50.848;4.334;2022-11-27T18:01:15;6.67;;;4.93;;
14474;SDS011;7323;50.848;4.334;2022-11-27T18:03:43;7.33;;;5.13;;
14474;SDS011;7323;50.848;4.334;2022-11-27T18:06:12;9.50;;;5.40;;
14474;SDS011;7323;50.848;4.334;2022-11-27T18:08:39;7.23;;;5.17;;